Time;durP1;ratioP1;P1;durP2;ratioP2;P2;SDS_P1;SDS_P2;PMS_P1;PMS_P2;Temp;Humidity;BMP_temperature;BMP_pressure;BME280_temperature;BME280_humidity;BME280_pressure;Samples;Min_cycle;Max_cycle;Signal;HPM_P1;HPM_P2
2023/12/07 00:01:14;;;;;;;8.70;7.97;;;5.80;44.50;;;;;;10432803;28;20312;-76
2023/12/07 00:06:18;;;;;;;8.60;7.80;;;5.80;44.70;;;;;;10430468;28;20225;-76
2023/12/07 00:11:23;;;;;;;8.90;7.67;;;5.70;44.80;;;;;;10420093;28;20325;-76
2023/12/07 00:16:26;;;;;;;8.87;8.07;;;5.70;45.00;;;;;;10429336;28;20605;-77
2023/12/07 00:21:31;;;;;;;9.13;8.33;;;5.70;45.00;;;;;;10434032;28;20856;-76
2023/12/07 00:26:34;;;;;;;8.73;8.00;;;5.80;45.10;;;;;;10432674;28;20328;-76
2023/12/07 00:31:37;;;;;;;8.83;8.13;;;5.80;45.00;;;;;;10448170;28;20233;-76
2023/12/07 00:36:42;;;;;;;9.40;8.60;;;5.80;45.00;;;;;;10439203;28;20261;-75
2023/12/07 00:41:46;;;;;;;9.53;8.53;;;5.80;44.90;;;;;;10434665;28;20232;-76
2023/12/07 00:46:50;;;;;;;9.33;8.43;;;5.80;44.70;;;;;;10435781;28;20293;-76
2023/12/07 00:51:55;;;;;;;9.20;8.40;;;5.70;44.80;;;;;;10434928;28;20229;-76
2023/12/07 00:56:58;;;;;;;8.53;7.73;;;5.60;45.00;;;;;;10439064;28;20294;-76
2023/12/07 01:02:02;;;;;;;8.57;7.87;;;5.50;45.00;;;;;;10437008;28;20251;-76
2023/12/07 01:07:06;;;;;;;8.50;7.67;;;5.50;45.10;;;;;;10431027;28;20743;-75
2023/12/07 01:12:09;;;;;;;8.73;7.97;;;5.50;45.20;;;;;;10432810;28;20792;-76
2023/12/07 01:17:12;;;;;;;8.87;8.07;;;5.60;45.10;;;;;;10435722;28;20711;-76
2023/12/07 01:22:18;;;;;;;8.77;7.97;;;5.60;45.10;;;;;;10426783;28;20225;-76
2023/12/07 01:27:21;;;;;;;8.73;7.93;;;5.60;45.10;;;;;;10420324;28;20876;-76
2023/12/07 01:32:24;;;;;;;8.50;7.80;;;5.70;45.00;;;;;;10426460;28;20840;-76
2023/12/07 01:37:30;;;;;;;9.33;8.43;;;5.70;45.00;;;;;;10430617;28;20233;-76
2023/12/07 01:42:33;;;;;;;8.87;8.07;;;5.70;45.10;;;;;;10423787;28;20350;-76
2023/12/07 01:47:38;;;;;;;9.57;8.57;;;5.70;45.10;;;;;;10429812;28;20243;-76
2023/12/07 01:52:49;;;;;;;9.67;8.73;;;5.70;45.10;;;;;;10426206;28;20233;-76
2023/12/07 01:57:52;;;;;;;9.73;8.83;;;5.70;45.20;;;;;;10426521;28;20335;-75
2023/12/07 02:02:56;;;;;;;9.77;8.83;;;5.70;45.00;;;;;;10427971;28;20240;-75
2023/12/07 02:08:01;;;;;;;10.10;9.20;;;5.70;44.90;;;;;;10428493;28;20224;-75
2023/12/07 02:13:05;;;;;;;10.73;9.73;;;5.70;45.00;;;;;;10417089;28;20237;-75
2023/12/07 02:18:15;;;;;;;11.87;10.77;;;5.70;45.00;;;;;;10428875;28;20324;-75
2023/12/07 02:23:20;;;;;;;12.83;11.63;;;5.70;44.90;;;;;;10431916;28;20722;-75
2023/12/07 02:28:44;;;;;;;12.03;10.93;;;5.70;44.70;;;;;;10437332;28;20221;-75
2023/12/07 02:33:48;;;;;;;12.60;11.40;;;5.80;44.70;;;;;;10431542;28;20221;-75
2023/12/07 02:38:56;;;;;;;12.33;11.13;;;5.80;44.70;;;;;;10435671;28;20249;-75
2023/12/07 02:44:02;;;;;;;11.30;10.30;;;5.70;44.50;;;;;;10436074;28;20225;-76
2023/12/07 02:49:05;;;;;;;11.77;10.67;;;5.70;44.50;;;;;;10437449;28;20235;-76
2023/12/07 02:54:08;;;;;;;12.20;11.00;;;5.80;44.60;;;;;;10435899;28;20261;-76
2023/12/07 02:59:13;;;;;;;12.23;11.10;;;5.80;44.60;;;;;;10435593;28;20271;-77
2023/12/07 03:04:16;;;;;;;10.70;9.70;;;5.80;44.50;;;;;;10435375;28;20224;-76
2023/12/07 03:09:19;;;;;;;11.87;10.80;;;5.70;44.50;;;;;;10430456;28;20652;-76
2023/12/07 03:14:24;;;;;;;12.23;11.13;;;5.80;44.60;;;;;;10435456;28;20233;-77
2023/12/07 03:19:28;;;;;;;12.40;11.20;;;5.80;44.60;;;;;;10435246;28;20225;-76
2023/12/07 03:24:31;;;;;;;11.70;10.63;;;5.80;44.70;;;;;;10433885;28;20771;-77
2023/12/07 03:29:36;;;;;;;12.73;11.53;;;5.70;44.60;;;;;;10433919;28;20881;-76
2023/12/07 03:34:39;;;;;;;13.37;12.13;;;5.70;44.60;;;;;;10432796;28;20320;-78
2023/12/07 03:39:43;;;;;;;12.90;11.60;;;5.60;44.60;;;;;;10431364;28;20287;-76
2023/12/07 03:44:48;;;;;;;12.53;11.43;;;5.50;44.70;;;;;;10429977;28;20499;-77
2023/12/07 03:49:51;;;;;;;12.63;11.43;;;5.50;44.60;;;;;;10427379;28;20933;-77
2023/12/07 03:54:54;;;;;;;12.20;11.00;;;5.50;44.70;;;;;;10429153;28;20244;-76
2023/12/07 03:59:59;;;;;;;13.73;12.23;;;5.50;44.70;;;;;;10432264;28;20229;-77
2023/12/07 04:05:02;;;;;;;11.57;10.50;;;5.50;44.70;;;;;;10432969;28;20295;-76
2023/12/07 04:10:06;;;;;;;13.60;12.37;;;5.50;44.70;;;;;;10427038;28;20233;-75
2023/12/07 04:15:11;;;;;;;12.70;11.60;;;5.60;44.50;;;;;;10430123;28;20256;-76
2023/12/07 04:20:18;;;;;;;12.97;11.67;;;5.50;44.50;;;;;;10421228;28;20241;-76
2023/12/07 04:25:22;;;;;;;13.70;12.40;;;5.50;44.50;;;;;;10430196;28;20410;-77
2023/12/07 04:30:27;;;;;;;13.20;12.00;;;5.50;44.50;;;;;;10430613;28;20229;-76
2023/12/07 04:35:31;;;;;;;13.20;12.00;;;5.50;44.50;;;;;;10427469;28;20311;-76
2023/12/07 04:40:34;;;;;;;13.30;12.07;;;5.40;44.40;;;;;;10429582;28;20304;-75
2023/12/07 04:45:39;;;;;;;13.70;12.40;;;5.30;44.40;;;;;;10428260;28;20764;-76
2023/12/07 04:50:42;;;;;;;12.93;11.73;;;5.10;44.60;;;;;;10431670;28;20784;-76
2023/12/07 04:55:49;;;;;;;13.50;12.30;;;5.00;44.80;;;;;;10428756;28;20237;-76
2023/12/07 05:00:55;;;;;;;12.63;11.43;;;4.90;45.00;;;;;;10425894;28;20323;-76
2023/12/07 05:05:58;;;;;;;12.10;10.77;;;4.80;45.20;;;;;;10418291;28;20294;-76
2023/12/07 05:11:03;;;;;;;12.63;11.43;;;4.70;45.10;;;;;;10435461;28;20722;-76
2023/12/07 05:16:08;;;;;;;12.47;11.27;;;4.70;45.40;;;;;;10435435;28;20247;-76
2023/12/07 05:21:11;;;;;;;12.37;11.17;;;4.70;45.30;;;;;;10435497;28;20237;-76
2023/12/07 05:26:14;;;;;;;11.40;10.27;;;4.70;45.20;;;;;;10435294;28;20237;-76
2023/12/07 05:31:19;;;;;;;10.80;9.77;;;4.70;45.30;;;;;;10432945;28;20300;-74
2023/12/07 05:36:22;;;;;;;11.83;10.73;;;4.80;45.60;;;;;;10419442;28;20233;-77
2023/12/07 05:41:26;;;;;;;10.97;9.97;;;4.90;45.30;;;;;;10428094;28;20264;-77
2023/12/07 05:46:31;;;;;;;11.20;10.00;;;5.00;45.30;;;;;;10428986;28;20239;-75
2023/12/07 05:51:34;;;;;;;10.23;9.23;;;5.00;45.20;;;;;;10418290;28;20232;-76
2023/12/07 05:56:37;;;;;;;11.27;9.93;;;5.10;45.20;;;;;;10427948;28;20241;-76
2023/12/07 06:01:42;;;;;;;11.50;10.40;;;5.20;44.90;;;;;;10425421;28;20311;-76
2023/12/07 06:06:46;;;;;;;11.23;10.10;;;5.10;44.70;;;;;;10429430;28;20241;-76
2023/12/07 06:11:49;;;;;;;10.93;9.93;;;5.10;44.70;;;;;;10427771;28;20728;-76
2023/12/07 06:16:54;;;;;;;10.97;9.93;;;5.10;44.80;;;;;;10426754;28;20263;-76
2023/12/07 06:21:58;;;;;;;11.60;10.50;;;5.20;45.00;;;;;;10429218;28;20737;-76
2023/12/07 06:27:02;;;;;;;11.93;10.00;;;5.20;45.30;;;;;;10426009;28;20229;-76
2023/12/07 06:32:07;;;;;;;11.93;10.63;;;5.30;45.10;;;;;;10420549;28;20225;-77
2023/12/07 06:37:11;;;;;;;11.23;10.13;;;5.40;44.90;;;;;;10422014;28;20239;-77
2023/12/07 06:42:15;;;;;;;11.53;10.37;;;5.40;44.60;;;;;;10424932;28;20237;-76
2023/12/07 06:47:19;;;;;;;11.60;10.50;;;5.40;44.50;;;;;;10425601;28;20600;-77
2023/12/07 06:52:23;;;;;;;12.93;10.13;;;5.50;44.50;;;;;;10427129;28;20274;-77
2023/12/07 06:57:26;;;;;;;11.70;10.57;;;5.50;45.00;;;;;;10422087;28;20743;-77
2023/12/07 07:02:31;;;;;;;11.80;10.70;;;5.40;44.10;;;;;;10424610;28;20235;-77
2023/12/07 07:07:34;;;;;;;11.67;10.40;;;5.30;44.20;;;;;;10433290;28;20316;-76
2023/12/07 07:12:37;;;;;;;11.13;10.03;;;5.30;44.30;;;;;;10452281;28;20270;-75
2023/12/07 07:17:42;;;;;;;11.10;9.07;;;5.30;44.30;;;;;;10455149;28;20237;-77
2023/12/07 07:22:45;;;;;;;11.80;10.57;;;5.20;45.00;;;;;;10450270;28;20244;-78
2023/12/07 07:27:49;;;;;;;12.37;11.17;;;5.20;44.60;;;;;;10448411;28;20331;-78
2023/12/07 07:32:53;;;;;;;12.33;11.13;;;5.20;44.60;;;;;;10446073;28;20225;-78
2023/12/07 07:37:57;;;;;;;9.17;8.37;;;5.20;44.60;;;;;;10438847;28;20231;-78
2023/12/07 07:43:00;;;;;;;12.27;11.07;;;5.20;44.70;;;;;;10449110;28;20228;-78
2023/12/07 07:48:05;;;;;;;12.03;10.93;;;5.20;44.60;;;;;;10449202;28;20255;-78
2023/12/07 07:53:09;;;;;;;13.37;12.17;;;5.20;44.40;;;;;;10443243;28;20221;-78
2023/12/07 07:58:12;;;;;;;12.80;11.50;;;5.20;44.50;;;;;;10448738;28;20229;-78
2023/12/07 08:03:17;;;;;;;12.40;11.13;;;5.10;44.50;;;;;;10446869;28;20228;-78
2023/12/07 08:08:20;;;;;;;12.57;11.37;;;5.10;44.70;;;;;;10444286;28;20251;-79
2023/12/07 08:13:23;;;;;;;14.17;12.87;;;5.10;44.60;;;;;;10442766;28;20770;-78
2023/12/07 08:18:28;;;;;;;12.83;11.63;;;5.10;44.60;;;;;;10445349;28;21082;-78
2023/12/07 08:23:31;;;;;;;14.07;12.67;;;5.10;44.70;;;;;;10448542;28;20233;-78
2023/12/07 08:28:35;;;;;;;13.77;12.33;;;5.10;44.50;;;;;;10448234;28;20287;-78
2023/12/07 08:33:40;;;;;;;13.73;12.37;;;5.10;44.60;;;;;;10443610;28;20241;-80
2023/12/07 08:38:43;;;;;;;12.67;11.47;;;5.20;44.70;;;;;;10444716;28;20647;-78
2023/12/07 08:49:48;;;;;;;11.17;10.17;;;5.20;44.60;;;;;;10442716;28;20232;-78
2023/12/07 08:54:51;;;;;;;13.47;12.17;;;5.20;44.70;;;;;;10449592;28;20233;-79
2023/12/07 08:59:55;;;;;;;12.17;10.97;;;5.30;44.70;;;;;;10445968;28;20240;-78
2023/12/07 09:04:59;;;;;;;12.90;11.70;;;5.30;44.60;;;;;;10446513;28;20243;-79
2023/12/07 09:10:03;;;;;;;13.13;11.90;;;5.40;44.50;;;;;;10446561;28;20224;-78
2023/12/07 09:15:09;;;;;;;11.23;10.13;;;5.50;44.30;;;;;;10441179;28;20236;-78
2023/12/07 09:20:14;;;;;;;11.67;10.47;;;5.50;44.10;;;;;;10442917;28;20252;-79
2023/12/07 09:25:19;;;;;;;14.50;13.17;;;5.60;44.10;;;;;;10444419;28;20247;-78
2023/12/07 09:30:23;;;;;;;18.73;15.97;;;5.60;44.20;;;;;;10445806;28;20319;-78
2023/12/07 09:35:27;;;;;;;14.33;12.93;;;5.60;44.30;;;;;;10445530;28;20282;-79
2023/12/07 09:40:31;;;;;;;11.90;10.70;;;5.70;44.10;;;;;;10446018;28;20240;-78
2023/12/07 09:45:35;;;;;;;11.27;10.20;;;5.80;44.20;;;;;;10444862;28;20228;-79
2023/12/07 09:50:40;;;;;;;11.83;10.63;;;5.90;44.30;;;;;;10445612;28;20229;-78
2023/12/07 09:55:44;;;;;;;10.87;9.87;;;6.00;43.90;;;;;;10445294;28;20735;-78
2023/12/07 10:00:48;;;;;;;9.87;8.97;;;6.10;43.90;;;;;;10445367;28;20320;-78
2023/12/07 10:05:58;;;;;;;9.87;8.97;;;6.20;43.70;;;;;;10445308;28;20236;-78
2023/12/07 10:11:06;;;;;;;12.00;10.80;;;6.30;43.70;;;;;;10440821;28;20225;-78
2023/12/07 10:16:11;;;;;;;12.27;11.07;;;6.40;43.70;;;;;;10439997;28;20307;-78
2023/12/07 10:21:16;;;;;;;12.57;11.27;;;6.50;43.70;;;;;;10444635;28;20786;-78
2023/12/07 10:26:20;;;;;;;11.60;10.60;;;6.50;43.60;;;;;;10444090;28;20225;-78
2023/12/07 10:31:24;;;;;;;12.13;11.03;;;6.60;43.70;;;;;;10444915;28;20235;-79
2023/12/07 10:36:29;;;;;;;12.90;11.70;;;6.70;43.80;;;;;;10440898;28;20241;-78
2023/12/07 10:41:36;;;;;;;12.97;11.60;;;6.80;43.80;;;;;;10444510;28;20229;-78
2023/12/07 10:46:43;;;;;;;12.93;11.73;;;7.00;43.70;;;;;;10452507;28;20308;-78
2023/12/07 10:51:54;;;;;;;13.60;12.20;;;7.20;44.10;;;;;;10452068;28;20229;-78
2023/12/07 10:57:02;;;;;;;12.70;11.50;;;7.40;43.50;;;;;;10455597;28;20884;-76
2023/12/07 11:02:10;;;;;;;11.00;10.00;;;7.60;44.10;;;;;;10451404;28;20240;-77
2023/12/07 11:07:19;;;;;;;10.30;9.40;;;7.80;43.40;;;;;;10451631;28;20283;-77
2023/12/07 11:12:33;;;;;;;11.50;10.43;;;8.00;43.00;;;;;;10451743;28;20732;-77
2023/12/07 11:17:50;;;;;;;11.37;10.37;;;8.10;42.30;;;;;;10450875;28;20699;-76
2023/12/07 11:22:57;;;;;;;10.87;9.83;;;8.30;42.30;;;;;;10450670;28;20239;-76
2023/12/07 11:28:05;;;;;;;11.17;10.07;;;8.30;41.40;;;;;;10447640;28;20237;-76
2023/12/07 11:33:10;;;;;;;12.83;11.53;;;8.20;41.00;;;;;;10445752;28;20235;-77
2023/12/07 11:38:19;;;;;;;11.37;10.37;;;8.10;41.80;;;;;;10444271;28;20243;-77
2023/12/07 11:43:43;;;;;;;11.57;10.37;;;8.00;41.60;;;;;;10450227;28;20244;-77
2023/12/07 11:48:48;;;;;;;11.13;10.13;;;7.80;40.40;;;;;;10448557;28;20245;-76
2023/12/07 11:53:54;;;;;;;11.50;10.50;;;7.70;41.60;;;;;;10448942;28;20287;-77
2023/12/07 11:58:59;;;;;;;11.07;9.97;;;7.60;41.70;;;;;;10447369;28;20236;-78
2023/12/07 12:04:04;;;;;;;10.90;9.90;;;7.60;42.10;;;;;;10449274;28;20319;-77
2023/12/07 12:09:10;;;;;;;10.80;9.63;;;7.60;42.00;;;;;;10440487;28;20250;-77
2023/12/07 12:14:17;;;;;;;11.53;10.33;;;7.70;41.80;;;;;;10449073;28;20739;-77
2023/12/07 12:19:21;;;;;;;10.70;9.07;;;7.80;42.40;;;;;;10448894;28;20248;-77
2023/12/07 12:24:39;;;;;;;10.03;9.03;;;7.90;42.30;;;;;;10446528;28;20643;-77
2023/12/07 12:29:43;;;;;;;9.40;8.50;;;8.00;41.80;;;;;;10448230;28;20275;-77
2023/12/07 12:34:46;;;;;;;9.60;8.70;;;8.20;42.10;;;;;;10443636;28;20233;-77
2023/12/07 12:39:51;;;;;;;9.87;8.87;;;8.20;42.00;;;;;;10448167;28;20244;-77
2023/12/07 12:44:54;;;;;;;9.77;8.13;;;8.30;41.70;;;;;;10447531;28;20321;-77
2023/12/07 12:49:57;;;;;;;10.17;8.90;;;8.20;41.40;;;;;;10447958;28;20229;-77
2023/12/07 12:55:03;;;;;;;8.93;8.10;;;8.20;41.70;;;;;;10439366;28;20596;-77
2023/12/07 13:00:07;;;;;;;9.73;8.73;;;8.20;41.50;;;;;;10448473;28;20233;-79
2023/12/07 13:05:10;;;;;;;10.73;9.63;;;8.20;41.60;;;;;;10446523;28;20225;-78
2023/12/07 13:10:15;;;;;;;9.53;8.63;;;8.20;41.70;;;;;;10443731;28;20259;-78
2023/12/07 13:15:19;;;;;;;10.00;8.97;;;8.30;41.30;;;;;;10440579;28;20316;-78
2023/12/07 13:20:22;;;;;;;9.43;8.57;;;8.30;41.30;;;;;;10439982;28;20251;-78
2023/12/07 13:25:27;;;;;;;9.80;8.80;;;8.30;41.30;;;;;;10436321;28;20727;-78
2023/12/07 13:30:33;;;;;;;10.27;9.27;;;8.30;41.00;;;;;;10432119;28;20929;-80
2023/12/07 13:35:36;;;;;;;10.60;9.57;;;8.30;41.00;;;;;;10429031;28;20233;-82
2023/12/07 13:40:41;;;;;;;10.07;9.17;;;8.30;40.90;;;;;;10423111;28;20233;-79
2023/12/07 13:45:44;;;;;;;8.93;8.07;;;8.20;40.50;;;;;;10404486;28;20244;-78
2023/12/07 13:50:48;;;;;;;9.77;8.93;;;8.20;40.90;;;;;;10420537;28;20225;-79
2023/12/07 13:55:53;;;;;;;10.00;9.07;;;8.20;40.90;;;;;;10409840;28;20251;-79
2023/12/07 14:00:56;;;;;;;9.00;8.20;;;8.10;40.80;;;;;;10424366;28;20255;-80
2023/12/07 14:06:00;;;;;;;9.73;8.87;;;8.10;41.00;;;;;;10426421;28;20879;-79
2023/12/07 14:11:07;;;;;;;10.50;9.47;;;8.10;40.90;;;;;;10415743;28;20253;-82
2023/12/07 14:16:10;;;;;;;9.87;8.97;;;8.10;42.00;;;;;;10419405;28;20237;-82
2023/12/07 14:21:25;;;;;;;8.90;8.10;;;8.20;41.60;;;;;;10438629;28;20282;-81
2023/12/07 14:26:43;;;;;;;10.40;9.40;;;8.20;41.10;;;;;;10435082;28;20236;-79
2023/12/07 14:31:47;;;;;;;10.00;9.07;;;8.10;40.30;;;;;;10432150;28;20236;-79
2023/12/07 14:36:50;;;;;;;8.93;8.03;;;8.00;40.80;;;;;;10442543;28;20312;-79
2023/12/07 14:41:56;;;;;;;11.00;9.90;;;8.00;40.70;;;;;;10438431;28;20236;-80
2023/12/07 14:46:59;;;;;;;10.10;9.17;;;7.90;40.40;;;;;;10442692;28;20291;-78
2023/12/07 14:52:02;;;;;;;9.10;8.30;;;7.80;40.60;;;;;;10444995;28;20943;-79
2023/12/07 14:57:09;;;;;;;10.87;9.87;;;7.70;40.60;;;;;;10441283;28;20319;-80
2023/12/07 15:02:13;;;;;;;11.07;9.97;;;7.60;40.30;;;;;;10430721;28;20229;-80
2023/12/07 15:07:16;;;;;;;12.87;11.00;;;7.60;40.40;;;;;;10439608;28;20266;-79
2023/12/07 15:12:21;;;;;;;17.03;15.33;;;7.50;40.40;;;;;;10448337;28;20772;-79
2023/12/07 15:17:27;;;;;;;16.67;14.97;;;7.40;40.10;;;;;;10452062;28;20233;-78
2023/12/07 15:22:31;;;;;;;15.63;14.23;;;7.30;40.30;;;;;;10449797;28;20316;-78
2023/12/07 15:27:35;;;;;;;16.07;12.00;;;7.20;40.20;;;;;;10447066;28;20229;-78
2023/12/07 15:32:41;;;;;;;14.13;12.83;;;7.00;40.00;;;;;;10448603;28;20306;-79
2023/12/07 15:37:44;;;;;;;14.83;12.80;;;6.90;39.80;;;;;;10448090;28;20229;-78
2023/12/07 15:42:49;;;;;;;14.47;13.00;;;6.90;40.10;;;;;;10446289;28;20229;-79
2023/12/07 15:47:53;;;;;;;13.57;12.27;;;6.80;39.90;;;;;;10453960;28;20233;-78
2023/12/07 15:52:57;;;;;;;12.43;11.13;;;6.60;40.00;;;;;;10447638;28;20233;-80
2023/12/07 15:58:01;;;;;;;13.73;12.33;;;6.50;40.00;;;;;;10439831;28;20727;-78
2023/12/07 16:03:05;;;;;;;10.73;9.73;;;6.50;39.70;;;;;;10435505;28;20235;-78
2023/12/07 16:08:09;;;;;;;11.20;10.20;;;6.30;40.70;;;;;;10432018;28;20264;-78
2023/12/07 16:13:15;;;;;;;12.27;11.07;;;6.20;41.30;;;;;;10435760;28;20229;-79
2023/12/07 16:18:19;;;;;;;10.83;9.83;;;6.20;40.40;;;;;;10434907;28;20884;-78
2023/12/07 16:23:22;;;;;;;10.33;9.33;;;6.10;40.20;;;;;;10429158;28;20229;-79
2023/12/07 16:28:27;;;;;;;9.57;8.57;;;6.00;40.00;;;;;;10420603;28;20234;-81
2023/12/07 16:33:30;;;;;;;10.73;9.77;;;5.90;39.80;;;;;;10427095;28;20235;-79
2023/12/07 16:38:41;;;;;;;10.63;9.70;;;5.80;39.90;;;;;;10418596;28;20232;-81
2023/12/07 16:43:45;;;;;;;13.20;11.83;;;5.70;39.30;;;;;;10417353;28;21177;-78
2023/12/07 16:48:48;;;;;;;15.43;13.87;;;5.60;39.60;;;;;;10423095;28;20233;-80
2023/12/07 16:53:52;;;;;;;16.90;14.03;;;5.60;39.80;;;;;;10420307;28;20265;-78
2023/12/07 16:58:57;;;;;;;14.77;12.20;;;5.50;39.80;;;;;;10420317;28;20252;-78
2023/12/07 17:04:00;;;;;;;16.10;14.57;;;5.30;39.60;;;;;;10419301;28;20621;-81
2023/12/07 17:09:05;;;;;;;10.67;9.67;;;5.20;39.60;;;;;;10416460;28;20229;-78
2023/12/07 17:14:19;;;;;;;10.43;9.43;;;5.10;39.30;;;;;;10415658;28;20238;-81
2023/12/07 17:19:22;;;;;;;13.63;12.23;;;5.00;39.40;;;;;;10412637;28;20246;-77
2023/12/07 17:24:27;;;;;;;14.13;12.73;;;4.90;39.50;;;;;;10411901;28;20231;-79
2023/12/07 17:29:32;;;;;;;19.67;17.57;;;4.80;39.60;;;;;;10415713;28;20347;-78
2023/12/07 17:34:37;;;;;;;22.33;19.97;;;4.70;39.60;;;;;;10414826;28;20873;-78
2023/12/07 17:39:40;;;;;;;27.20;24.40;;;4.60;39.70;;;;;;10418314;28;20324;-78
2023/12/07 17:44:45;;;;;;;31.00;27.93;;;4.50;39.80;;;;;;10411398;28;20233;-79
2023/12/07 17:49:48;;;;;;;24.03;21.60;;;4.40;39.80;;;;;;10412209;28;20248;-78
2023/12/07 17:54:51;;;;;;;21.20;19.10;;;4.40;39.90;;;;;;10417367;28;20239;-79
2023/12/07 17:59:56;;;;;;;20.47;17.93;;;4.40;40.00;;;;;;10414909;28;20768;-77
2023/12/07 18:04:59;;;;;;;16.93;15.23;;;4.30;39.70;;;;;;10416790;28;20232;-78
2023/12/07 18:10:03;;;;;;;16.17;14.50;;;4.30;39.80;;;;;;10414938;28;20238;-80
2023/12/07 18:15:11;;;;;;;16.13;14.43;;;4.30;40.00;;;;;;10410661;28;20229;-78
2023/12/07 18:20:15;;;;;;;15.37;13.80;;;4.30;40.00;;;;;;10410985;28;20225;-76
2023/12/07 18:25:18;;;;;;;15.30;13.83;;;4.30;40.10;;;;;;10418117;28;20237;-80
2023/12/07 18:30:24;;;;;;;14.83;13.27;;;4.10;40.20;;;;;;10439509;28;20245;-78
2023/12/07 18:35:28;;;;;;;15.83;14.30;;;4.10;39.80;;;;;;10434692;28;20336;-78
2023/12/07 18:40:32;;;;;;;16.23;14.63;;;4.10;39.50;;;;;;10443177;28;20739;-80
2023/12/07 18:45:39;;;;;;;22.57;18.13;;;4.00;39.60;;;;;;10433952;28;20311;-80
2023/12/07 18:50:42;;;;;;;23.30;19.93;;;4.00;40.20;;;;;;10438957;28;20233;-82
2023/12/07 18:55:45;;;;;;;18.80;16.87;;;4.00;40.50;;;;;;10436344;28;20275;-79
2023/12/07 19:00:51;;;;;;;20.87;17.70;;;4.10;41.00;;;;;;10437329;28;20229;-79
2023/12/07 19:05:54;;;;;;;20.33;18.17;;;3.90;41.30;;;;;;10440543;28;20238;-80
2023/12/07 19:10:58;;;;;;;22.17;19.40;;;3.90;42.10;;;;;;10436541;28;20244;-79
2023/12/07 19:16:02;;;;;;;19.90;17.77;;;3.90;41.40;;;;;;10437629;28;20255;-78
2023/12/07 19:21:06;;;;;;;20.10;17.87;;;4.00;41.50;;;;;;10434871;28;20231;-79
2023/12/07 19:26:10;;;;;;;18.93;16.77;;;4.00;41.40;;;;;;10432940;28;20229;-81
2023/12/07 19:31:15;;;;;;;18.63;16.63;;;4.10;41.60;;;;;;10441279;28;20315;-79
2023/12/07 19:36:18;;;;;;;18.77;16.83;;;4.00;41.60;;;;;;10438636;28;20231;-79
2023/12/07 19:41:21;;;;;;;18.53;16.40;;;4.10;41.70;;;;;;10434386;28;20493;-77
2023/12/07 19:46:26;;;;;;;18.20;16.30;;;4.10;41.70;;;;;;10432335;28;20236;-78
2023/12/07 19:51:29;;;;;;;17.63;15.73;;;4.10;41.70;;;;;;10432810;28;20243;-78
2023/12/07 19:56:34;;;;;;;17.10;15.37;;;4.20;41.70;;;;;;10432602;28;20237;-78
2023/12/07 20:01:39;;;;;;;18.43;16.53;;;4.20;41.60;;;;;;10430274;28;20232;-78
2023/12/07 20:06:42;;;;;;;16.33;14.73;;;4.20;41.20;;;;;;10437173;28;20233;-79
2023/12/07 20:11:45;;;;;;;16.93;15.13;;;4.20;41.00;;;;;;10424855;28;20239;-79
2023/12/07 20:16:50;;;;;;;16.47;14.73;;;4.20;40.80;;;;;;10425709;28;20243;-79
2023/12/07 20:21:53;;;;;;;15.30;13.80;;;4.10;40.50;;;;;;10436757;28;20332;-80
2023/12/07 20:26:56;;;;;;;17.17;15.10;;;4.10;40.80;;;;;;10432172;28;20320;-79
2023/12/07 20:32:01;;;;;;;17.33;15.53;;;4.00;40.70;;;;;;10436241;28;20229;-79
2023/12/07 20:37:04;;;;;;;17.03;15.17;;;3.90;41.20;;;;;;10432047;28;20241;-79
2023/12/07 20:42:08;;;;;;;17.33;15.63;;;3.90;40.50;;;;;;10436234;28;20552;-78
2023/12/07 20:47:12;;;;;;;17.27;15.47;;;3.90;40.50;;;;;;10434498;28;20283;-80
2023/12/07 20:52:16;;;;;;;18.23;16.33;;;3.80;40.10;;;;;;10433477;28;20315;-77
2023/12/07 20:57:20;;;;;;;17.43;14.70;;;3.70;39.90;;;;;;10432335;28;20221;-77
2023/12/07 21:02:24;;;;;;;16.93;14.27;;;3.70;40.00;;;;;;10427300;28;20252;-77
2023/12/07 21:07:27;;;;;;;18.53;15.73;;;3.60;39.80;;;;;;10421303;28;20242;-77
2023/12/07 21:12:31;;;;;;;17.40;15.57;;;3.50;40.00;;;;;;10427329;28;20967;-77
2023/12/07 21:17:35;;;;;;;17.30;15.53;;;3.40;40.10;;;;;;10429183;28;21651;-78
2023/12/07 21:22:39;;;;;;;17.83;15.97;;;3.40;39.90;;;;;;10427334;28;20228;-77
2023/12/07 21:27:42;;;;;;;18.60;16.60;;;3.30;40.00;;;;;;10423820;28;20243;-76
2023/12/07 21:32:47;;;;;;;17.73;15.83;;;3.20;40.00;;;;;;10422910;28;20232;-77
2023/12/07 21:37:50;;;;;;;15.27;13.67;;;3.20;39.80;;;;;;10415533;28;20233;-78
2023/12/07 21:42:53;;;;;;;17.20;15.13;;;3.10;39.80;;;;;;10413830;28;20226;-78
2023/12/07 21:47:58;;;;;;;16.23;14.53;;;3.10;39.90;;;;;;10411718;28;20256;-77
2023/12/07 21:53:01;;;;;;;17.23;14.90;;;3.10;39.90;;;;;;10417760;28;20908;-78
2023/12/07 21:58:05;;;;;;;18.70;14.97;;;3.10;40.10;;;;;;10419328;28;20315;-77
2023/12/07 22:03:10;;;;;;;13.70;12.27;;;3.10;39.90;;;;;;10418339;28;20229;-78
2023/12/07 22:08:14;;;;;;;14.60;13.10;;;3.00;39.70;;;;;;10415329;28;20233;-78
2023/12/07 22:13:17;;;;;;;12.23;11.03;;;3.00;39.80;;;;;;10414906;28;20225;-77
2023/12/07 22:18:21;;;;;;;11.63;10.40;;;3.00;39.70;;;;;;10420048;28;20303;-77
2023/12/07 22:23:25;;;;;;;10.23;9.23;;;2.90;39.30;;;;;;10413048;28;20799;-77
2023/12/07 22:28:28;;;;;;;12.43;10.23;;;2.80;38.90;;;;;;10418341;28;20347;-77
2023/12/07 22:33:32;;;;;;;22.80;9.53;;;2.70;38.70;;;;;;10417880;28;20384;-78
2023/12/07 22:38:36;;;;;;;11.70;10.13;;;2.60;38.50;;;;;;10416301;28;20635;-77
2023/12/07 22:43:39;;;;;;;12.47;11.00;;;2.40;38.70;;;;;;10425394;28;20679;-77
2023/12/07 22:48:43;;;;;;;17.20;11.57;;;2.30;38.90;;;;;;10425713;28;20903;-77
2023/12/07 22:53:47;;;;;;;13.83;11.73;;;2.20;39.10;;;;;;10428280;28;20233;-77
2023/12/07 22:58:50;;;;;;;14.17;11.93;;;2.10;39.50;;;;;;10422528;28;20248;-77
2023/12/07 23:03:55;;;;;;;13.77;11.73;;;2.00;39.50;;;;;;10422009;28;20239;-77
2023/12/07 23:08:58;;;;;;;14.57;12.23;;;2.00;40.00;;;;;;10429156;28;20310;-77
2023/12/07 23:14:02;;;;;;;14.63;12.77;;;1.90;40.20;;;;;;10421205;28;20318;-77
2023/12/07 23:19:07;;;;;;;16.43;12.63;;;2.00;40.10;;;;;;10423822;28;20710;-77
2023/12/07 23:24:10;;;;;;;14.23;12.77;;;1.90;39.90;;;;;;10424671;28;20884;-77
2023/12/07 23:29:13;;;;;;;15.77;13.20;;;1.90;40.20;;;;;;10417114;28;20248;-76
2023/12/07 23:34:18;;;;;;;16.17;13.17;;;1.90;40.20;;;;;;10419947;28;20240;-76
2023/12/07 23:39:21;;;;;;;13.80;12.13;;;2.00;40.30;;;;;;10418438;28;21329;-77
2023/12/07 23:44:24;;;;;;;15.47;13.63;;;2.00;40.30;;;;;;10419130;28;20241;-76
2023/12/07 23:49:29;;;;;;;13.37;11.53;;;2.00;40.30;;;;;;10416404;28;20232;-77
2023/12/07 23:54:32;;;;;;;13.63;12.23;;;2.00;40.30;;;;;;10417338;28;20255;-77
2023/12/07 23:59:35;;;;;;;14.20;12.67;;;2.10;40.40;;;;;;10424033;28;20270;-76
